createdAt,value
2022-10-05T00:00:37.381Z,100537.38
2022-10-05T00:03:11.448Z,100537.66
2022-10-05T00:05:41.851Z,100541.00
2022-10-05T00:08:15.832Z,100537.53
2022-10-05T00:10:46.258Z,100530.28
2022-10-05T00:13:20.150Z,100541.38
2022-10-05T00:15:52.209Z,100538.50
2022-10-05T00:18:22.349Z,100544.63
2022-10-05T00:20:52.344Z,100542.31
2022-10-05T00:23:23.203Z,100540.53
2022-10-05T00:25:52.660Z,100541.84
2022-10-05T00:28:30.637Z,100546.03
2022-10-05T00:31:00.451Z,100541.19
2022-10-05T00:33:29.064Z,100539.59
2022-10-05T00:35:59.044Z,100541.97
2022-10-05T00:38:29.722Z,100543.16
2022-10-05T00:41:07.327Z,100538.84
2022-10-05T00:43:52.457Z,100538.16
2022-10-05T00:46:26.349Z,100525.34
2022-10-05T00:49:03.053Z,100533.84
2022-10-05T00:51:37.209Z,100536.22
2022-10-05T00:54:22.831Z,100535.63
2022-10-05T00:57:08.501Z,100537.69
2022-10-05T00:59:50.994Z,100532.03
2022-10-05T01:02:26.837Z,100537.66
2022-10-05T01:05:00.672Z,100541.13
2022-10-05T01:07:40.266Z,100541.25
2022-10-05T01:10:17.177Z,100539.69
2022-10-05T01:12:53.827Z,100530.72
2022-10-05T01:15:29.384Z,100539.81
2022-10-05T01:18:07.217Z,100530.94
2022-10-05T01:20:47.864Z,100536.44
2022-10-05T01:23:51.321Z,100545.72
2022-10-05T01:26:39.730Z,100542.75
2022-10-05T01:29:18.523Z,100544.31
2022-10-05T01:31:56.168Z,100541.28
2022-10-05T01:34:33.882Z,100547.50
2022-10-05T01:37:10.557Z,100537.81
2022-10-05T01:39:50.390Z,100536.69
2022-10-05T01:42:31.445Z,100533.59
2022-10-05T01:45:06.905Z,100546.56
2022-10-05T01:47:43.781Z,100536.91
2022-10-05T01:50:22.716Z,100540.97
2022-10-05T01:53:00.394Z,100529.97
2022-10-05T01:55:37.605Z,100530.50
2022-10-05T01:58:17.146Z,100525.50
2022-10-05T02:01:00.230Z,100526.91
2022-10-05T02:03:36.797Z,100519.56
2022-10-05T02:06:11.598Z,100505.34
2022-10-05T02:08:48.666Z,100517.50
2022-10-05T02:11:20.437Z,100501.25
2022-10-05T02:13:54.643Z,100506.50
2022-10-05T02:16:32.099Z,100507.59
2022-10-05T02:19:09.852Z,100510.81
2022-10-05T02:21:40.906Z,100512.69
2022-10-05T02:24:17.490Z,100511.63
2022-10-05T02:26:48.057Z,100504.03
2022-10-05T02:29:20.173Z,100508.53
2022-10-05T02:31:55.394Z,100506.16
2022-10-05T02:34:26.722Z,100513.47
2022-10-05T02:37:13.101Z,100512.81
2022-10-05T02:39:53.579Z,100507.34
2022-10-05T02:42:29.611Z,100501.25
2022-10-05T02:45:09.407Z,100491.50
2022-10-05T02:47:47.440Z,100500.91
2022-10-05T02:50:27.259Z,100505.22
2022-10-05T02:53:12.223Z,100476.78
2022-10-05T02:55:52.822Z,100498.66
2022-10-05T02:58:26.193Z,100503.34
2022-10-05T03:01:00.417Z,100501.47
2022-10-05T03:03:37.267Z,100505.22
2022-10-05T03:06:16.731Z,100494.94
2022-10-05T03:08:54.211Z,100503.44
2022-10-05T03:11:31.518Z,100489.75
2022-10-05T03:14:09.703Z,100498.09
2022-10-05T03:16:49.064Z,100496.56
2022-10-05T03:19:37.115Z,100507.22
2022-10-05T03:22:14.471Z,100506.75
2022-10-05T03:24:58.334Z,100501.50
2022-10-05T03:27:39.779Z,100498.72
2022-10-05T03:30:14.896Z,100511.72
2022-10-05T03:32:58.862Z,100508.44
2022-10-05T03:35:34.350Z,100513.25
2022-10-05T03:38:14.292Z,100506.47
2022-10-05T03:40:51.916Z,100500.56
2022-10-05T03:43:38.203Z,100511.91
2022-10-05T03:46:15.085Z,100519.06
2022-10-05T03:48:53.303Z,100520.97
2022-10-05T03:51:28.766Z,100515.06
2022-10-05T03:54:02.161Z,100520.22
2022-10-05T03:56:34.966Z,100524.22
2022-10-05T03:59:11.445Z,100517.81
2022-10-05T04:04:54.194Z,100509.28
2022-10-05T04:07:33.544Z,100525.44
2022-10-05T04:10:04.635Z,100527.16
2022-10-05T04:12:38.432Z,100521.06
2022-10-05T04:15:19.000Z,100530.06
2022-10-05T04:17:53.089Z,100529.03
2022-10-05T04:20:28.033Z,100523.38
2022-10-05T04:23:06.125Z,100531.94
2022-10-05T04:25:41.031Z,100540.25
2022-10-05T04:28:18.958Z,100531.13
2022-10-05T04:30:51.165Z,100524.91
2022-10-05T04:33:22.621Z,100523.16
2022-10-05T04:36:12.175Z,100531.13
2022-10-05T04:39:02.323Z,100526.34
2022-10-05T04:41:50.251Z,100534.00
2022-10-05T04:44:43.993Z,100531.91
2022-10-05T04:47:32.371Z,100536.19
2022-10-05T04:50:14.028Z,100544.06
2022-10-05T04:53:05.650Z,100539.44
2022-10-05T04:55:44.922Z,100546.16
2022-10-05T04:58:25.386Z,100542.25
2022-10-05T05:01:09.562Z,100548.75
2022-10-05T05:03:55.204Z,100545.63
2022-10-05T05:06:35.786Z,100553.47
2022-10-05T05:09:26.832Z,100558.22
2022-10-05T05:12:16.347Z,100554.22
2022-10-05T05:15:22.747Z,100554.22
2022-10-05T05:18:07.733Z,100558.41
2022-10-05T05:20:48.263Z,100550.03
2022-10-05T05:23:25.255Z,100564.09
2022-10-05T05:26:03.772Z,100559.78
2022-10-05T05:28:42.330Z,100560.94
2022-10-05T05:31:19.953Z,100562.41
2022-10-05T05:33:58.598Z,100563.53
2022-10-05T05:36:41.625Z,100561.13
2022-10-05T05:39:28.957Z,100566.97
2022-10-05T05:42:02.857Z,100562.44
2022-10-05T05:44:41.918Z,100566.53
2022-10-05T05:47:19.064Z,100564.00
2022-10-05T05:50:10.583Z,100578.91
2022-10-05T05:52:47.188Z,100570.72
2022-10-05T05:55:26.455Z,100558.75
2022-10-05T05:58:02.304Z,100573.50
2022-10-05T06:00:38.950Z,100581.44
2022-10-05T06:03:14.386Z,100577.44
2022-10-05T06:05:48.085Z,100577.22
2022-10-05T06:08:23.854Z,100577.91
2022-10-05T06:11:01.006Z,100565.53
2022-10-05T06:13:34.684Z,100566.97
2022-10-05T06:16:18.731Z,100573.09
2022-10-05T06:18:52.879Z,100578.22
2022-10-05T06:21:27.164Z,100577.78
2022-10-05T06:24:00.679Z,100576.75
2022-10-05T06:27:01.582Z,100572.91
2022-10-05T06:29:39.828Z,100576.41
2022-10-05T06:32:22.188Z,100573.44
2022-10-05T06:35:06.396Z,100588.13
2022-10-05T06:37:51.513Z,100591.09
2022-10-05T06:40:32.435Z,100589.22
2022-10-05T06:43:16.332Z,100585.25
2022-10-05T06:46:10.865Z,100593.00
2022-10-05T06:49:13.013Z,100585.09
2022-10-05T06:51:56.438Z,100580.75
2022-10-05T06:54:43.941Z,100595.53
2022-10-05T06:57:25.645Z,100601.41
2022-10-05T07:00:01.985Z,100593.44
2022-10-05T07:02:43.742Z,100588.19
2022-10-05T07:05:37.495Z,100597.22
2022-10-05T07:08:11.789Z,100600.66
2022-10-05T07:10:51.353Z,100591.75
2022-10-05T07:13:53.747Z,100602.66
2022-10-05T07:16:34.866Z,100595.44
2022-10-05T07:19:19.112Z,100592.00
2022-10-05T07:22:03.419Z,100588.25
2022-10-05T07:24:34.484Z,100582.88
2022-10-05T07:27:14.059Z,100587.44
2022-10-05T07:29:52.037Z,100583.88
2022-10-05T07:32:33.838Z,100594.16
2022-10-05T07:35:31.051Z,100592.16
2022-10-05T07:38:11.560Z,100604.03
2022-10-05T07:40:46.502Z,100601.94
2022-10-05T07:43:40.094Z,100606.94
2022-10-05T07:46:24.136Z,100609.16
2022-10-05T07:49:06.950Z,100601.38
2022-10-05T07:51:41.128Z,100605.44
2022-10-05T07:54:22.488Z,100611.19
2022-10-05T07:56:56.274Z,100600.72
2022-10-05T07:59:33.041Z,100616.84
2022-10-05T08:02:17.349Z,100607.06
2022-10-05T08:04:55.668Z,100608.59
2022-10-05T08:10:06.919Z,100606.75
2022-10-05T08:12:43.946Z,100615.81
2022-10-05T08:15:17.198Z,100616.19
2022-10-05T08:17:53.187Z,100620.16
2022-10-05T08:33:52.945Z,100633.28
2022-10-05T08:36:29.130Z,100645.84
2022-10-05T08:39:04.138Z,100637.50
2022-10-05T08:42:09.841Z,100654.97
2022-10-05T08:45:18.427Z,100648.22
2022-10-05T08:48:23.145Z,100636.69
2022-10-05T08:51:22.130Z,100658.41
2022-10-05T08:54:14.690Z,100660.31
2022-10-05T08:56:50.806Z,100654.50
2022-10-05T08:59:47.917Z,100657.44
2022-10-05T09:02:26.937Z,100653.66
2022-10-05T09:05:16.674Z,100661.66
2022-10-05T09:08:25.157Z,100666.34
2022-10-05T09:11:07.122Z,100663.13
2022-10-05T09:14:15.894Z,100668.84
2022-10-05T09:16:59.962Z,100657.28
2022-10-05T09:19:53.906Z,100669.25
2022-10-05T09:22:38.453Z,100664.53
2022-10-05T09:25:19.318Z,100670.34
2022-10-05T09:27:54.465Z,100657.13
2022-10-05T09:30:42.179Z,100658.09
2022-10-05T09:33:36.979Z,100663.97
2022-10-05T09:36:42.150Z,100672.38
2022-10-05T09:39:41.002Z,100672.13
2022-10-05T09:42:48.973Z,100675.69
2022-10-05T09:45:59.347Z,100677.59
2022-10-05T09:48:57.844Z,100670.75
2022-10-05T09:52:06.256Z,100661.41
2022-10-05T09:55:06.753Z,100663.00
2022-10-05T09:58:17.393Z,100667.88
2022-10-05T10:01:33.223Z,100660.91
2022-10-05T10:04:20.483Z,100672.06
2022-10-05T10:07:22.795Z,100661.91
2022-10-05T10:10:16.714Z,100657.34
2022-10-05T10:13:04.788Z,100647.22
2022-10-05T10:15:59.053Z,100648.34
2022-10-05T10:18:59.683Z,100642.75
2022-10-05T10:22:00.622Z,100634.91
2022-10-05T10:24:44.237Z,100634.44
2022-10-05T10:27:27.584Z,100641.19
2022-10-05T10:30:46.316Z,100634.88
2022-10-05T10:33:55.837Z,100640.06
2022-10-05T10:36:47.382Z,100631.31
2022-10-05T10:39:29.158Z,100633.47
2022-10-05T10:42:17.258Z,100631.41
2022-10-05T10:45:13.978Z,100622.47
2022-10-05T10:47:53.234Z,100627.81
2022-10-05T10:50:45.723Z,100624.66
2022-10-05T10:53:49.635Z,100620.13
2022-10-05T10:56:59.748Z,100617.38
2022-10-05T11:00:23.219Z,100618.94
2022-10-05T11:03:06.458Z,100611.03
2022-10-05T11:06:08.431Z,100613.56
2022-10-05T11:09:12.841Z,100601.66
2022-10-05T11:12:44.886Z,100594.06
2022-10-05T11:15:44.417Z,100592.47
2022-10-05T11:18:20.815Z,100585.28
2022-10-05T11:21:25.765Z,100580.06
2022-10-05T11:24:42.616Z,100590.22
2022-10-05T11:27:29.478Z,100583.25
2022-10-05T11:30:25.838Z,100582.94
2022-10-05T11:33:48.339Z,100578.16
2022-10-05T11:36:48.068Z,100581.97
2022-10-05T11:39:37.152Z,100581.81
2022-10-05T11:42:32.803Z,100578.69
2022-10-05T11:45:26.837Z,100582.22
2022-10-05T11:48:26.093Z,100579.97
2022-10-05T11:51:38.930Z,100575.22
2022-10-05T11:55:05.797Z,100567.59
2022-10-05T11:57:37.749Z,100560.56
2022-10-05T12:00:15.558Z,100548.38
2022-10-05T12:03:04.108Z,100552.56
2022-10-05T12:05:39.764Z,100552.44
2022-10-05T12:08:23.121Z,100539.50
2022-10-05T12:11:03.720Z,100541.03
2022-10-05T12:13:41.656Z,100535.34
2022-10-05T12:16:17.925Z,100534.00
2022-10-05T12:18:58.281Z,100545.00
2022-10-05T12:21:34.209Z,100541.94
2022-10-05T12:24:10.858Z,100537.69
2022-10-05T12:26:45.268Z,100534.13
2022-10-05T12:29:23.482Z,100525.53
2022-10-05T12:32:00.697Z,100534.44
2022-10-05T12:34:48.713Z,100525.59
2022-10-05T12:37:39.119Z,100520.13
2022-10-05T12:40:24.507Z,100517.81
2022-10-05T12:43:03.214Z,100515.91
2022-10-05T12:45:46.134Z,100519.41
2022-10-05T12:48:31.553Z,100499.91
2022-10-05T12:51:07.714Z,100510.72
2022-10-05T12:53:48.753Z,100505.22
2022-10-05T12:56:25.474Z,100500.09
2022-10-05T12:59:01.648Z,100497.78
2022-10-05T13:01:41.757Z,100496.50
2022-10-05T13:04:26.718Z,100464.78
2022-10-05T13:07:19.273Z,100489.09
2022-10-05T13:09:55.849Z,100486.19
2022-10-05T13:12:48.059Z,100461.06
2022-10-05T13:15:21.577Z,100479.47
2022-10-05T13:18:04.128Z,100477.34
2022-10-05T13:20:39.270Z,100480.34
2022-10-05T13:23:15.029Z,100472.78
2022-10-05T13:25:49.606Z,100477.78
2022-10-05T13:28:23.210Z,100461.97
2022-10-05T13:30:59.039Z,100464.47
2022-10-05T13:33:42.796Z,100465.66
2022-10-05T13:36:18.795Z,100460.66
2022-10-05T13:38:55.717Z,100460.78
2022-10-05T13:41:34.788Z,100458.44
2022-10-05T13:44:15.096Z,100453.44
2022-10-05T13:46:49.892Z,100452.63
2022-10-05T13:49:29.491Z,100456.06
2022-10-05T13:52:07.787Z,100437.22
2022-10-05T13:54:45.333Z,100447.88
2022-10-05T13:57:26.887Z,100447.81
2022-10-05T13:59:58.729Z,100451.88
2022-10-05T14:02:31.116Z,100443.53
2022-10-05T14:05:04.590Z,100449.22
2022-10-05T14:07:35.119Z,100448.94
2022-10-05T14:10:08.482Z,100447.63
2022-10-05T14:12:41.510Z,100446.94
2022-10-05T14:15:23.643Z,100441.78
2022-10-05T14:17:52.871Z,100441.00
2022-10-05T14:20:26.710Z,100448.25
2022-10-05T14:22:59.669Z,100440.56
2022-10-05T14:25:30.008Z,100452.13
2022-10-05T14:28:04.763Z,100444.94
2022-10-05T14:30:35.133Z,100448.81
2022-10-05T14:33:17.563Z,100439.50
2022-10-05T14:35:50.302Z,100448.97
2022-10-05T14:38:21.690Z,100449.38
2022-10-05T14:41:05.738Z,100426.06
2022-10-05T14:43:35.592Z,100441.19
2022-10-05T14:46:25.350Z,100428.63
2022-10-05T14:49:22.471Z,100437.53
2022-10-05T14:51:53.741Z,100435.44
2022-10-05T14:54:42.395Z,100435.06
2022-10-05T14:57:25.319Z,100434.72
2022-10-05T15:00:05.260Z,100424.94
2022-10-05T15:02:49.672Z,100430.66
2022-10-05T15:05:23.465Z,100426.59
2022-10-05T15:07:58.129Z,100426.53
2022-10-05T15:10:35.977Z,100432.41
2022-10-05T15:13:13.482Z,100426.44
2022-10-05T15:15:48.569Z,100431.88
2022-10-05T15:18:31.673Z,100429.34
2022-10-05T15:21:13.641Z,100444.06
2022-10-05T15:23:47.587Z,100438.06
2022-10-05T15:26:30.893Z,100431.81
2022-10-05T15:29:07.070Z,100428.16
2022-10-05T15:31:44.552Z,100446.66
2022-10-05T15:34:19.144Z,100436.72
2022-10-05T15:36:54.417Z,100440.06
2022-10-05T15:39:34.867Z,100430.81
2022-10-05T15:42:06.262Z,100431.06
2022-10-05T15:44:56.273Z,100436.84
2022-10-05T15:47:35.249Z,100433.75
2022-10-05T15:50:16.945Z,100433.53
2022-10-05T15:52:49.874Z,100435.19
2022-10-05T15:55:36.644Z,100431.66
2022-10-05T15:58:25.804Z,100437.88
2022-10-05T16:00:59.739Z,100432.91
2022-10-05T16:03:41.606Z,100428.97
2022-10-05T16:06:33.951Z,100439.50
2022-10-05T16:09:13.625Z,100449.44
2022-10-05T16:11:59.964Z,100454.69
2022-10-05T16:14:43.346Z,100449.53
2022-10-05T16:17:28.471Z,100453.84
2022-10-05T16:20:15.111Z,100451.31
2022-10-05T16:22:51.738Z,100459.97
2022-10-05T16:25:23.632Z,100461.78
2022-10-05T16:28:08.341Z,100461.97
2022-10-05T16:30:49.657Z,100459.38
2022-10-05T16:33:27.059Z,100466.13
2022-10-05T16:36:08.989Z,100464.28
2022-10-05T16:38:43.229Z,100466.91
2022-10-05T16:41:20.257Z,100460.06
2022-10-05T16:43:55.308Z,100467.41
2022-10-05T16:46:33.500Z,100465.88
2022-10-05T16:49:12.867Z,100474.56
2022-10-05T16:51:51.602Z,100472.91
2022-10-05T16:54:23.262Z,100484.63
2022-10-05T16:56:56.152Z,100474.94
2022-10-05T16:59:58.562Z,100480.28
2022-10-05T17:02:42.239Z,100475.31
2022-10-05T17:05:26.204Z,100472.28
2022-10-05T17:08:09.856Z,100471.53
2022-10-05T17:10:54.145Z,100474.22
2022-10-05T17:13:51.050Z,100477.19
2022-10-05T17:16:36.615Z,100479.88
2022-10-05T17:19:22.214Z,100476.44
2022-10-05T17:22:00.628Z,100489.41
2022-10-05T17:24:42.828Z,100492.47
2022-10-05T17:27:20.589Z,100483.84
2022-10-05T17:29:52.665Z,100494.44
2022-10-05T17:32:50.536Z,100492.44
2022-10-05T17:35:22.362Z,100505.72
2022-10-05T17:38:14.600Z,100512.13
2022-10-05T17:41:05.839Z,100505.69
2022-10-05T17:43:35.295Z,100509.53
2022-10-05T17:46:06.304Z,100506.72
2022-10-05T17:49:08.588Z,100503.03
2022-10-05T17:52:17.498Z,100517.38
2022-10-05T17:55:27.077Z,100507.88
2022-10-05T17:57:59.985Z,100521.81
2022-10-05T18:00:56.096Z,100525.56
2022-10-05T18:03:40.999Z,100536.72
2022-10-05T18:06:47.689Z,100540.91
2022-10-05T18:09:33.190Z,100540.97
2022-10-05T18:12:39.974Z,100531.50
2022-10-05T18:15:45.069Z,100539.09
2022-10-05T18:18:50.232Z,100544.78
2022-10-05T18:21:29.929Z,100543.13
2022-10-05T18:24:29.938Z,100541.97
2022-10-05T18:27:28.584Z,100556.94
2022-10-05T18:30:07.828Z,100555.44
2022-10-05T18:32:53.425Z,100558.78
2022-10-05T18:35:25.524Z,100560.75
2022-10-05T18:38:05.538Z,100559.75
2022-10-05T18:40:48.713Z,100574.19
2022-10-05T18:43:29.732Z,100575.66
2022-10-05T18:46:23.121Z,100571.31
2022-10-05T18:49:06.542Z,100573.13
2022-10-05T18:51:50.901Z,100578.09
2022-10-05T18:54:35.577Z,100592.81
2022-10-05T18:57:31.675Z,100587.50
2022-10-05T19:00:05.057Z,100595.09
2022-10-05T19:02:38.576Z,100599.94
2022-10-05T19:05:46.488Z,100602.72
2022-10-05T19:08:18.568Z,100598.69
2022-10-05T19:10:53.127Z,100608.81
2022-10-05T19:13:34.514Z,100611.50
2022-10-05T19:16:19.195Z,100616.56
2022-10-05T19:19:11.085Z,100622.41
2022-10-05T19:21:48.411Z,100629.19
2022-10-05T19:24:32.583Z,100620.66
2022-10-05T19:27:07.994Z,100632.25
2022-10-05T19:29:53.811Z,100631.28
2022-10-05T19:32:31.735Z,100639.22
2022-10-05T19:35:20.301Z,100638.97
2022-10-05T19:37:58.614Z,100639.94
2022-10-05T19:40:31.704Z,100644.75
2022-10-05T19:43:15.966Z,100649.28
2022-10-05T19:45:59.462Z,100657.91
2022-10-05T19:48:37.797Z,100660.97
2022-10-05T19:51:13.873Z,100660.06
2022-10-05T19:53:47.233Z,100664.69
2022-10-05T19:56:21.363Z,100664.28
2022-10-05T19:58:52.073Z,100670.50
2022-10-05T20:01:27.561Z,100674.72
2022-10-05T20:03:58.125Z,100678.63
2022-10-05T20:06:27.177Z,100680.84
2022-10-05T20:09:00.252Z,100676.44
2022-10-05T20:11:29.754Z,100679.22
2022-10-05T20:14:22.689Z,100684.22
2022-10-05T20:17:36.926Z,100677.03
2022-10-05T20:20:36.676Z,100695.72
2022-10-05T20:23:25.203Z,100701.75
2022-10-05T20:26:11.799Z,100683.44
2022-10-05T20:28:40.333Z,100703.13
2022-10-05T20:31:09.060Z,100714.25
2022-10-05T20:33:40.659Z,100720.13
2022-10-05T20:36:09.253Z,100718.19
2022-10-05T20:38:40.982Z,100723.59
2022-10-05T20:41:10.315Z,100715.09
2022-10-05T20:43:39.511Z,100725.69
2022-10-05T20:46:08.770Z,100725.97
2022-10-05T20:48:38.787Z,100733.34
2022-10-05T20:51:07.729Z,100742.94
2022-10-05T20:53:36.162Z,100743.28
2022-10-05T20:56:04.799Z,100744.34
2022-10-05T20:58:33.295Z,100741.47
2022-10-05T21:01:18.538Z,100744.09
2022-10-05T21:03:49.900Z,100747.31
2022-10-05T21:06:19.218Z,100743.28
2022-10-05T21:08:47.747Z,100737.31
2022-10-05T21:11:16.186Z,100736.75
2022-10-05T21:13:45.937Z,100740.63
2022-10-05T21:16:17.570Z,100748.41
2022-10-05T21:18:49.184Z,100756.59
2022-10-05T21:21:18.676Z,100759.09
2022-10-05T21:23:47.774Z,100762.53
2022-10-05T21:26:16.814Z,100759.72
2022-10-05T21:28:45.390Z,100763.88
2022-10-05T21:31:14.028Z,100764.13
2022-10-05T21:33:42.545Z,100766.06
2022-10-05T21:36:14.621Z,100770.44
2022-10-05T21:38:43.361Z,100772.03
2022-10-05T21:41:11.854Z,100767.25
2022-10-05T21:43:40.453Z,100765.00
2022-10-05T21:46:09.764Z,100769.22
2022-10-05T21:48:39.864Z,100771.31
2022-10-05T21:51:10.619Z,100774.72
2022-10-05T21:53:44.067Z,100767.63
2022-10-05T21:56:15.656Z,100776.25
2022-10-05T21:58:47.590Z,100775.09
2022-10-05T22:01:21.551Z,100774.28
2022-10-05T22:03:51.011Z,100776.78
2022-10-05T22:06:19.517Z,100778.84
2022-10-05T22:08:49.405Z,100767.53
2022-10-05T22:11:18.959Z,100773.38
2022-10-05T22:13:49.445Z,100777.38
2022-10-05T22:16:20.134Z,100767.84
2022-10-05T22:18:49.752Z,100780.78
2022-10-05T22:21:18.482Z,100776.25
2022-10-05T22:23:48.862Z,100780.34
2022-10-05T22:26:20.682Z,100786.31
2022-10-05T22:28:50.271Z,100783.44
2022-10-05T22:31:20.156Z,100787.28
2022-10-05T22:33:48.691Z,100779.34
2022-10-05T22:36:17.627Z,100772.25
2022-10-05T22:38:46.776Z,100768.97
2022-10-05T22:41:18.459Z,100768.22
2022-10-05T22:43:50.300Z,100767.72
2022-10-05T22:46:19.214Z,100766.28
2022-10-05T22:48:48.322Z,100763.00
2022-10-05T22:51:17.213Z,100757.66
2022-10-05T22:53:45.866Z,100744.78
2022-10-05T22:56:16.678Z,100747.78
2022-10-05T22:58:46.523Z,100743.06
2022-10-05T23:01:16.917Z,100755.81
2022-10-05T23:03:46.124Z,100757.59
2022-10-05T23:06:16.443Z,100761.41
2022-10-05T23:08:45.144Z,100754.59
2022-10-05T23:11:16.057Z,100762.13
2022-10-05T23:13:46.138Z,100760.81
2022-10-05T23:16:17.081Z,100748.16
2022-10-05T23:18:46.873Z,100757.81
2022-10-05T23:21:15.566Z,100763.72
2022-10-05T23:23:47.474Z,100764.50
2022-10-05T23:26:17.371Z,100764.75
2022-10-05T23:28:47.775Z,100772.91
2022-10-05T23:31:18.277Z,100755.31
2022-10-05T23:33:46.907Z,100761.06
2022-10-05T23:36:17.249Z,100774.00
2022-10-05T23:38:46.018Z,100772.09
2022-10-05T23:41:14.794Z,100781.06
2022-10-05T23:43:43.905Z,100766.47
2022-10-05T23:46:15.067Z,100768.63
2022-10-05T23:48:43.580Z,100772.94
2022-10-05T23:51:14.583Z,100759.88
2022-10-05T23:53:43.313Z,100774.47
2022-10-05T23:56:11.940Z,100766.09
2022-10-05T23:58:41.225Z,100776.72
